Flight Track Log - Related Links

Times and Time Zones

All times are in EDT time to prevent confusion due to time zone crossing. See the FAB861 flight status page for this flight to view local times or setup timezone preferences in your user account.

Time Position Orientation Groundspeed Altitude Reporting Facility
EDT Latitude Longitude Course Direction KTS MPH feet Rate Location/Type
Wed 01:59:13 PM 63.8000 -68.5667 191° South 160 184 1,400  Level Montreal Center
Wed 02:04:13 PM 63.4667 -68.7167 188° South 330 380 13,000 2,250 Climbing Montreal Center
Wed 02:05:13 PM 63.3667 -68.7500 208° Southwest 360 414 14,900 2,050 Climbing Montreal Center
Wed 02:06:13 PM 63.2833 -68.8500 193° South 390 449 17,100 2,250 Climbing Montreal Center
Wed 02:07:13 PM 63.1833 -68.9000 193° South 390 449 19,400 1,950 Climbing Montreal Center
Wed 02:08:13 PM 63.0500 -68.9667 195° South 410 472 21,000 1,650 Climbing Montreal Center
Wed 02:09:13 PM 62.9333 -69.0333 195° South 430 495 22,700 1,500 Climbing Montreal Center
Wed 02:10:13 PM 62.8167 -69.1000 201° Southwest 450 518 24,000 1,650 Climbing Montreal Center
Wed 02:11:13 PM 62.7000 -69.2000 193° South 450 518 26,000 1,650 Climbing Montreal Center
Wed 02:12:13 PM 62.5667 -69.2667 193° South 450 518 27,300 1,750 Climbing Montreal Center
Wed 02:13:13 PM 62.4667 -69.3167 195° South 450 518 29,500 1,750 Climbing Montreal Center
Wed 02:14:13 PM 62.3500 -69.3833 195° South 430 495 30,800 1,000 Climbing Montreal Center
Wed 02:15:13 PM 62.2333 -69.4500 191° South 430 495 31,500 600 Climbing Montreal Center
Wed 02:16:13 PM 62.1167 -69.5000 196° South 430 495 32,000 125 Climbing Montreal Center
Wed 02:19:13 PM 61.7667 -69.7167 195° South 430 495 32,000  Level Montreal Center
Wed 02:24:13 PM 61.2000 -70.0333 195° South 420 483 32,000  Level Montreal Center
Wed 02:25:13 PM 61.0833 -70.1000 192° South 420 483 32,000  Level Montreal Center
Wed 02:26:13 PM 60.9667 -70.1500 199° South 420 483 32,000  Level Montreal Center
Wed 02:27:13 PM 60.8500 -70.2333 192° South 430 495 32,000  Level Montreal Center
Wed 02:28:13 PM 60.7333 -70.2833 196° South 420 483 32,000  Level Montreal Center
Wed 02:29:13 PM 60.6167 -70.3500 192° South 430 495 32,000  Level Montreal Center
Wed 02:30:13 PM 60.5000 -70.4000 194° South 420 483 32,000  Level Montreal Center
Wed 02:31:13 PM 60.4000 -70.4500 194° South 420 483 32,000  Level Montreal Center
Wed 02:32:13 PM 60.3000 -70.5000 192° South 410 472 32,000  Level Montreal Center
Wed 02:33:13 PM 60.1833 -70.5500 192° South 410 472 32,000  Level Montreal Center
Wed 02:34:13 PM 60.0667 -70.6000 203° Southwest 410 472 32,000  Level Montreal Center
Wed 02:35:13 PM 59.9667 -70.6833 192° South 410 472 32,000  Level Montreal Center
Wed 02:36:13 PM 59.8500 -70.7333 196° South 400 460 32,000  Level Montreal Center
Wed 02:37:13 PM 59.7333 -70.8000 192° South 400 460 32,000  Level Montreal Center
Wed 02:38:13 PM 59.6167 -70.8500 190° South 400 460 32,000  Level Montreal Center
Wed 02:39:13 PM 59.5167 -70.8833 192° South 400 460 32,000  Level Montreal Center
Wed 02:40:13 PM 59.4000 -70.9333 194° South 400 460 32,000  Level Montreal Center
Wed 02:41:13 PM 59.3000 -70.9833 192° South 400 460 32,000  Level Montreal Center
Wed 02:42:13 PM 59.1833 -71.0333 194° South 400 460 32,000  Level Montreal Center
Wed 02:43:13 PM 59.0833 -71.0833 203° Southwest 390 449 32,000  Level Montreal Center
Wed 02:44:13 PM 58.9833 -71.1667 192° South 390 449 32,000  Level Montreal Center
Wed 02:45:13 PM 58.8667 -71.2167 190° South 380 437 32,000  Level Montreal Center
Wed 02:46:13 PM 58.7667 -71.2500 193° South 380 437 32,000  Level Montreal Center
Wed 02:47:13 PM 58.6500 -71.3000 195° South 370 426 32,000  Level Montreal Center
Wed 02:48:13 PM 58.5500 -71.3500 197° South 370 426 32,000  Level Montreal Center
Wed 02:49:13 PM 58.4667 -71.4000 190° South 370 426 32,000  Level Montreal Center
Wed 02:50:13 PM 58.3667 -71.4333 195° South 360 414 32,000  Level Montreal Center
Wed 02:51:13 PM 58.2667 -71.4833 195° South 370 426 32,000  Level Montreal Center
Wed 02:52:13 PM 58.1667 -71.5333 192° South 360 414 32,000 450 Level Montreal Center
Wed 02:53:13 PM 58.0833 -71.5667 195° South 350 403 32,900 700 Climbing Montreal Center
Wed 02:54:13 PM 57.9833 -71.6167 190° South 360 414 33,400 550 Climbing Montreal Center
Wed 02:55:13 PM 57.8833 -71.6500 195° South 370 426 34,000 300 Climbing Montreal Center
Wed 02:56:13 PM 57.7833 -71.7000 193° South 370 426 34,000  Level Montreal Center
Wed 02:57:13 PM 57.6667 -71.7500 190° South 370 426 34,000  Level Montreal Center
Wed 02:58:13 PM 57.5667 -71.7833 195° South 370 426 34,000  Level Montreal Center
Wed 02:59:13 PM 57.4667 -71.8333 190° South 370 426 34,000  Level Montreal Center
Wed 03:00:13 PM 57.3667 -71.8667 195° South 370 426 34,000  Level Montreal Center
Wed 03:01:13 PM 57.2667 -71.9167 192° South 370 426 34,000  Level Montreal Center
Wed 03:02:13 PM 57.1833 -71.9500 195° South 360 414 34,000  Level Montreal Center
Wed 03:03:13 PM 57.0833 -72.0000 190° South 360 414 34,000  Level Montreal Center
Wed 03:04:13 PM 56.9833 -72.0333 195° South 360 414 34,000  Level Montreal Center
Wed 03:05:13 PM 56.8833 -72.0833 190° South 360 414 34,000  Level Montreal Center
Wed 03:06:13 PM 56.7833 -72.1167 198° South 350 403 34,000  Level Montreal Center
Wed 03:07:13 PM 56.7000 -72.1667 190° South 350 403 34,000  Level Montreal Center
Wed 03:08:13 PM 56.6000 -72.2000 190° South 350 403 34,000  Level Montreal Center
Wed 03:09:13 PM 56.5000 -72.2333 195° South 350 403 34,000  Level Montreal Center
Wed 03:10:13 PM 56.4000 -72.2833 190° South 350 403 34,000  Level Montreal Center
Wed 03:11:13 PM 56.3000 -72.3167 196° South 360 414 34,000  Level Montreal Center
Wed 03:12:13 PM 56.2000 -72.3667 191° South 360 414 34,000  Level Montreal Center
Wed 03:13:13 PM 56.1000 -72.4000 191° South 360 414 34,000  Level Montreal Center
Wed 03:14:13 PM 56.0000 -72.4333 196° South 350 403 34,000  Level Montreal Center
Wed 03:15:13 PM 55.9000 -72.4833 193° South 360 414 34,000  Level Montreal Center
Wed 03:16:13 PM 55.8167 -72.5167 191° South 350 403 34,000  Level Montreal Center
Wed 03:17:13 PM 55.7167 -72.5500 196° South 360 414 34,000  Level Montreal Center
Wed 03:18:13 PM 55.6167 -72.6000 191° South 360 414 34,000  Level Montreal Center
Wed 03:19:13 PM 55.5167 -72.6333 191° South 360 414 34,000  Level Montreal Center
Wed 03:20:13 PM 55.4167 -72.6667 191° South 350 403 34,000  Level Montreal Center
Wed 03:21:14 PM 55.3167 -72.7000 199° South 360 414 34,000  Level Montreal Center
Wed 03:22:14 PM 55.2333 -72.7500 189° South 360 414 34,000  Level Montreal Center
Wed 03:23:14 PM 55.1167 -72.7833 191° South 360 414 34,000  Level Montreal Center
Wed 03:24:14 PM 55.0167 -72.8167 191° South 360 414 34,000  Level Montreal Center
Wed 03:25:14 PM 54.9167 -72.8500 199° South 360 414 34,000  Level Montreal Center
Wed 03:26:14 PM 54.8333 -72.9000 191° South 360 414 34,000  Level Montreal Center
Wed 03:27:14 PM 54.7333 -72.9333 191° South 360 414 34,000  Level Montreal Center
Wed 03:28:14 PM 54.6333 -72.9667 191° South 360 414 34,000  Level Montreal Center
Wed 03:29:14 PM 54.5333 -73.0000 191° South 360 414 34,000  Level Montreal Center
Wed 03:30:14 PM 54.4333 -73.0333 196° South 360 414 34,000  Level Montreal Center
Wed 03:31:14 PM 54.3333 -73.0833 191° South 360 414 34,000  Level Montreal Center
Wed 03:32:14 PM 54.2333 -73.1167 191° South 360 414 34,000  Level Montreal Center
Wed 03:33:14 PM 54.1333 -73.1500 191° South 360 414 34,000  Level Montreal Center
Wed 03:34:14 PM 54.0333 -73.1833 191° South 360 414 34,000  Level Montreal Center
Wed 03:35:14 PM 53.9333 -73.2167 191° South 360 414 34,000  Level Montreal Center
Wed 03:36:14 PM 53.8333 -73.2500 193° South 360 414 34,000  Level Montreal Center
Wed 03:37:14 PM 53.7500 -73.2833 191° South 350 403 34,000  Level Montreal Center
Wed 03:38:14 PM 53.6500 -73.3167 191° South 350 403 34,000  Level Montreal Center
Wed 03:39:14 PM 53.5500 -73.3500 193° South 350 403 34,000  Level Montreal Center
Wed 03:40:14 PM 53.4667 -73.3833 191° South 350 403 34,000  Level Montreal Center
Wed 03:41:14 PM 53.3667 -73.4167 191° South 350 403 34,000  Level Montreal Center
Wed 03:42:14 PM 53.2667 -73.4500 197° South 350 403 34,000  Level Montreal Center
Wed 03:43:14 PM 53.1667 -73.5000 191° South 350 403 34,000  Level Montreal Center
Wed 03:44:14 PM 53.0667 -73.5333 194° South 350 403 34,000  Level Montreal Center
Wed 03:45:14 PM 52.9833 -73.5667 191° South 360 414 34,000  Level Montreal Center
Wed 03:46:14 PM 52.8833 -73.6000 191° South 360 414 34,000  Level Montreal Center
Wed 03:47:14 PM 52.7833 -73.6333 191° South 360 414 34,000  Level Montreal Center
Wed 03:48:14 PM 52.6833 -73.6667 191° South 350 403 34,000  Level Montreal Center
Wed 03:49:14 PM 52.5833 -73.7000 191° South 360 414 34,000  Level Montreal Center
Wed 03:50:14 PM 52.4833 -73.7333 186° South 360 414 34,000  Level Montreal Center
Wed 03:51:14 PM 52.3833 -73.7500 194° South 350 403 34,000  Level Montreal Center
Wed 03:52:14 PM 52.3000 -73.7833 192° South 350 403 34,000  Level Montreal Center
Wed 03:53:14 PM 52.2000 -73.8167 192° South 350 403 34,000  Level Montreal Center
Wed 03:54:14 PM 52.1000 -73.8500 190° South 350 403 34,000  Level Montreal Center
Wed 03:55:14 PM 51.9833 -73.8833 192° South 350 403 34,000  Level Montreal Center
Wed 03:56:14 PM 51.8833 -73.9167 192° South 360 414 34,000  Level Montreal Center
Wed 03:57:14 PM 51.7833 -73.9500 194° South 360 414 34,000  Level Montreal Center
Wed 03:58:14 PM 51.7000 -73.9833 190° South 360 414 34,000  Level Montreal Center
Wed 03:59:14 PM 51.5833 -74.0167 194° South 360 414 34,000  Level Montreal Center
Wed 04:00:14 PM 51.5000 -74.0500 192° South 360 414 34,000  Level Montreal Center
Wed 04:01:14 PM 51.4000 -74.0833 186° South 360 414 34,000  Level Montreal Center
Wed 04:02:14 PM 51.3000 -74.1000 192° South 360 414 34,000  Level Montreal Center
Wed 04:03:14 PM 51.2000 -74.1333 192° South 360 414 34,000  Level Montreal Center
Wed 04:04:14 PM 51.1000 -74.1667 192° South 360 414 34,000  Level Montreal Center
Wed 04:05:14 PM 51.0000 -74.2000 192° South 360 414 34,000  Level Montreal Center
Wed 04:06:14 PM 50.9000 -74.2333 192° South 360 414 34,000  Level Montreal Center
Wed 04:07:14 PM 50.8000 -74.2667 186° South 360 414 34,000  Level Montreal Center
Wed 04:08:14 PM 50.7000 -74.2833 192° South 360 414 34,000  Level Montreal Center
Wed 04:09:14 PM 50.6000 -74.3167 192° South 360 414 34,000  Level Montreal Center
Wed 04:10:14 PM 50.5000 -74.3500 192° South 360 414 34,000  Level Montreal Center
Wed 04:11:14 PM 50.4000 -74.3833 194° South 360 414 34,000  Level Montreal Center
Wed 04:12:14 PM 50.3167 -74.4167 186° South 360 414 34,000  Level Montreal Center
Wed 04:13:14 PM 50.2167 -74.4333 192° South 360 414 34,000  Level Montreal Center
Wed 04:14:14 PM 50.1167 -74.4667 192° South 360 414 34,000  Level Montreal Center
Wed 04:15:14 PM 50.0167 -74.5000 190° South 360 414 34,000  Level Montreal Center
Wed 04:16:14 PM 49.9000 -74.5333 187° South 360 414 34,000  Level Montreal Center
Wed 04:17:14 PM 49.8167 -74.5500 192° South 360 414 34,000  Level Montreal Center
Wed 04:18:14 PM 49.7167 -74.5833 192° South 360 414 34,000  Level Montreal Center
Wed 04:19:14 PM 49.6167 -74.6167 192° South 360 414 34,000  Level Montreal Center
Wed 04:20:14 PM 49.5167 -74.6500 186° South 360 414 34,000  Level Montreal Center
Wed 04:21:14 PM 49.4167 -74.6667 192° South 360 414 34,000  Level Montreal Center
Wed 04:22:14 PM 49.3167 -74.7000 192° South 360 414 34,000  Level Montreal Center
Wed 04:23:14 PM 49.2167 -74.7333 192° South 360 414 34,000  Level Montreal Center
Wed 04:24:14 PM 49.1167 -74.7667 186° South 360 414 34,000  Level Montreal Center
Wed 04:25:14 PM 49.0167 -74.7833 192° South 360 414 34,000  Level Montreal Center
Wed 04:26:14 PM 48.9167 -74.8167 192° South 360 414 34,000  Level Montreal Center
Wed 04:27:14 PM 48.8167 -74.8500 186° South 360 414 34,000  Level Montreal Center
Wed 04:28:14 PM 48.7167 -74.8667 191° South 360 414 34,000  Level Montreal Center
Wed 04:29:14 PM 48.6000 -74.9000 192° South 360 414 34,000  Level Montreal Center
Wed 04:30:14 PM 48.5000 -74.9333 186° South 360 414 34,000  Level Montreal Center
Wed 04:31:14 PM 48.4000 -74.9500 193° South 370 426 34,000  Level Montreal Center
Wed 04:32:14 PM 48.3000 -74.9833 193° South 370 426 34,000  Level Montreal Center
Wed 04:33:14 PM 48.2000 -75.0167 186° South 360 414 34,000  Level Montreal Center
Wed 04:34:14 PM 48.1000 -75.0333 193° South 360 414 34,000  Level Montreal Center
Wed 04:35:14 PM 48.0000 -75.0667 186° South 360 414 34,000  Level Montreal Center
Wed 04:36:14 PM 47.9000 -75.0833 193° South 370 426 34,000  Level Montreal Center
Wed 04:37:14 PM 47.8000 -75.1167 199° South 370 426 34,000  Level Montreal Center
Wed 04:38:14 PM 47.7000 -75.1667 193° South 360 414 34,000  Level Montreal Center
Wed 04:39:14 PM 47.6000 -75.2000 186° South 360 414 34,000  Level Montreal Center
Wed 04:40:14 PM 47.5000 -75.2167 193° South 360 414 34,000  Level Montreal Center
Wed 04:41:14 PM 47.4000 -75.2500 186° South 360 414 34,000  Level Montreal Center
Wed 04:42:14 PM 47.3000 -75.2667 193° South 370 426 34,000  Level Montreal Center
Wed 04:43:14 PM 47.2000 -75.3000 193° South 370 426 34,000  Level Montreal Center
Wed 04:44:14 PM 47.1000 -75.3333 186° South 370 426 34,000  Level Montreal Center
Wed 04:45:14 PM 47.0000 -75.3500 193° South 370 426 34,000 -600 Level Montreal Center
Wed 04:46:14 PM 46.9000 -75.3833 187° South 380 437 32,800 -1,600 Descending Montreal Center
Wed 04:47:14 PM 46.8000 -75.4000 193° South 360 414 30,800 -2,200 Descending Montreal Center
Wed 04:48:14 PM 46.7000 -75.4333 188° South 350 403 28,400 -2,600 Descending Montreal Center
Wed 04:49:14 PM 46.6167 -75.4500 193° South 340 391 25,600 -2,700 Descending Montreal Center
Wed 04:50:14 PM 46.5167 -75.4833 188° South 340 391 23,000 -2,350 Descending Montreal Center
Wed 04:51:14 PM 46.4333 -75.5000 193° South 330 380 20,900 -1,900 Descending Montreal Center
Wed 04:52:14 PM 46.3333 -75.5333 180° South 320 368 19,200 -1,850 Descending Montreal Center
Wed 04:53:14 PM 46.2667 -75.5333 188° South 300 345 17,200 -2,000 Descending Montreal Center
Wed 04:54:14 PM 46.1833 -75.5500 196° South 290 334 15,200 -1,950 Descending Montreal Center
Wed 04:55:14 PM 46.1000 -75.5833 190° South 290 334 13,300 -1,650 Descending Montreal Center
Wed 04:56:14 PM 46.0333 -75.6000 180° South 280 322 11,900 -1,450 Descending Montreal Center
Wed 04:57:14 PM 45.9500 -75.6000 170° South 270 311 10,400 -1,650 Descending Montreal Center
Wed 04:58:14 PM 45.8833 -75.5833 172° South 270 311 8,600 -1,400 Descending Montreal Center
Wed 04:59:14 PM 45.8000 -75.5667 161° South 280 322 7,600 -1,350 Descending Montreal Center
Wed 05:00:14 PM 45.7333 -75.5333 172° South 270 311 5,900 -1,300 Descending Montreal Center
Wed 05:01:14 PM 45.6500 -75.5167 161° South 270 311 5,000 -450 Descending Montreal Center
Wed 05:02:14 PM 45.5833 -75.4833 172° South 270 311 5,000 -200 Level Montreal Center
Wed 05:03:14 PM 45.5000 -75.4667 180° South 270 311 4,600 -700 Descending Montreal Center
Wed 05:04:14 PM 45.4333 -75.4667 190° South 250 288 3,600 -800 Descending Montreal Center
Wed 05:05:14 PM 45.3667 -75.4833 245° Southwest 210 242 3,000 -800 Descending Montreal Center
Wed 05:06:14 PM 45.3500 -75.5333 245° Southwest 160 184 2,000 -900 Descending Montreal Center
Wed 05:07:14 PM 45.3333 -75.5833 245° Southwest 130 150 1,200 -700 Descending Montreal Center
Wed 05:08:14 PM 45.3167 -75.6333 235° Southwest 130 150 600 -450 Descending Montreal Center
Wed 05:09:14 PM 45.3000 -75.6667 235° Southwest 120 138 300 -300 Descending Montreal Center

Login

Don't have an account? Register now (free) for customized features, flight alerts, and more!